TW-0005 weather

CLOSED Bade Airstrip
Bade City, Taoyuan County, Taiwan

Public forecast

Using degrees Celsius for public forecast. Weather courtesy of forecast.io.

Closest aviation weather report (METAR) to Bade Airstrip

Closest report is Taiwan Taoyuan International Airport, 9.4 nm (17.4 km) NNW. Retrieved 2019/11/15 16:30 UTC (16 minutes ago):

RCTP 151630Z 07008KT 040V100 9999 FEW015 21/16 Q1015 NOSIG RMK A2999

Closest aviation forecast (TAF) to Bade Airstrip

Closest forecast is Taiwan Taoyuan International Airport, 9.4 nm (17.4 km) NNW. Retrieved 2019/11/15 12:00 UTC (5 hours ago):

TAF RCTP 151100Z 1512/1618 08012KT 9999 FEW018 TEMPO 1602/1608 07018KT TEMPO 1609/1614 11010KT